createdAt,value
2018-10-09T00:02:25.601Z,15.50
2018-10-09T00:04:54.962Z,15.50
2018-10-09T00:07:24.419Z,15.50
2018-10-09T00:09:53.747Z,15.50
2018-10-09T00:12:23.231Z,15.40
2018-10-09T00:14:52.619Z,15.50
2018-10-09T00:17:21.971Z,15.40
2018-10-09T00:19:52.204Z,15.40
2018-10-09T00:22:21.556Z,15.40
2018-10-09T00:24:50.943Z,15.40
2018-10-09T00:27:20.293Z,15.40
2018-10-09T00:29:49.636Z,15.40
2018-10-09T00:32:18.988Z,15.40
2018-10-09T00:34:48.358Z,15.40
2018-10-09T00:37:17.702Z,15.40
2018-10-09T00:39:47.092Z,15.40
2018-10-09T00:42:16.440Z,15.30
2018-10-09T00:44:45.816Z,15.40
2018-10-09T00:47:15.188Z,15.40
2018-10-09T00:49:44.561Z,15.40
2018-10-09T00:52:13.988Z,15.40
2018-10-09T00:54:43.360Z,15.40
2018-10-09T00:57:12.711Z,15.40
2018-10-09T00:59:42.157Z,15.40
2018-10-09T01:02:11.547Z,15.40
2018-10-09T01:04:40.950Z,15.40
2018-10-09T01:07:10.307Z,15.40
2018-10-09T01:09:39.641Z,15.40
2018-10-09T01:12:08.966Z,15.40
2018-10-09T01:14:38.279Z,15.40
2018-10-09T01:17:07.692Z,15.40
2018-10-09T01:19:37.078Z,15.40
2018-10-09T01:22:06.517Z,15.40
2018-10-09T01:24:35.871Z,15.40
2018-10-09T01:27:05.245Z,15.40
2018-10-09T01:29:34.593Z,15.40
2018-10-09T01:32:03.937Z,15.40
2018-10-09T01:34:33.492Z,15.40
2018-10-09T01:37:02.815Z,15.40
2018-10-09T01:39:32.142Z,15.40
2018-10-09T01:42:01.513Z,15.40
2018-10-09T01:44:30.843Z,15.40
2018-10-09T01:47:00.249Z,15.40
2018-10-09T01:49:29.618Z,15.40
2018-10-09T01:51:58.997Z,15.40
2018-10-09T01:54:28.461Z,15.30
2018-10-09T01:56:57.817Z,15.30
2018-10-09T01:59:27.196Z,15.30
2018-10-09T02:01:56.581Z,15.30
2018-10-09T02:04:25.945Z,15.30
2018-10-09T02:06:55.339Z,15.30
2018-10-09T02:09:24.663Z,15.30
2018-10-09T02:11:54.029Z,15.30
2018-10-09T02:14:23.377Z,15.30
2018-10-09T02:16:52.857Z,15.20
2018-10-09T02:19:22.227Z,15.20
2018-10-09T02:21:51.610Z,15.20
2018-10-09T02:24:21.021Z,15.20
2018-10-09T02:26:50.397Z,15.20
2018-10-09T02:29:19.931Z,15.20
2018-10-09T02:31:49.399Z,15.20
2018-10-09T02:34:18.880Z,15.20
2018-10-09T02:36:48.319Z,15.20
2018-10-09T02:39:17.736Z,15.20
2018-10-09T02:41:47.274Z,15.10
2018-10-09T02:44:16.813Z,15.10
2018-10-09T02:46:46.524Z,15.10
2018-10-09T02:49:15.950Z,15.10
2018-10-09T02:51:45.338Z,15.10
2018-10-09T02:54:14.772Z,15.10
2018-10-09T02:56:44.173Z,15.10
2018-10-09T02:59:13.554Z,15.10
2018-10-09T03:01:42.906Z,15.10
2018-10-09T03:04:12.299Z,15.00
2018-10-09T03:06:41.871Z,15.00
2018-10-09T03:09:11.360Z,15.00
2018-10-09T03:11:40.726Z,15.00
2018-10-09T03:14:10.121Z,15.00
2018-10-09T03:16:39.484Z,15.00
2018-10-09T03:19:08.885Z,15.00
2018-10-09T03:21:38.289Z,15.00
2018-10-09T03:24:07.824Z,15.00
2018-10-09T03:26:37.271Z,15.00
2018-10-09T03:29:06.965Z,15.00
2018-10-09T03:31:36.323Z,15.00
2018-10-09T03:34:05.848Z,15.00
2018-10-09T03:36:35.201Z,15.00
2018-10-09T03:39:05.891Z,14.90
2018-10-09T03:41:35.236Z,14.90
2018-10-09T03:44:04.600Z,14.90
2018-10-09T03:46:33.968Z,14.90
2018-10-09T03:49:03.349Z,14.90
2018-10-09T03:51:32.703Z,14.90
2018-10-09T03:54:02.066Z,14.90
2018-10-09T03:56:31.501Z,14.90
2018-10-09T03:59:00.909Z,14.90
2018-10-09T04:01:30.280Z,14.90
2018-10-09T04:03:59.664Z,14.90
2018-10-09T04:06:29.088Z,14.90
2018-10-09T04:08:58.513Z,14.90
2018-10-09T04:11:27.843Z,14.90
2018-10-09T04:13:57.228Z,14.90
2018-10-09T04:16:26.580Z,14.90
2018-10-09T04:18:55.996Z,14.90
2018-10-09T04:21:25.436Z,14.90
2018-10-09T04:23:54.924Z,14.80
2018-10-09T04:26:24.297Z,14.90
2018-10-09T04:28:53.733Z,14.80
2018-10-09T04:31:23.089Z,14.80
2018-10-09T04:33:52.493Z,14.80
2018-10-09T04:36:21.872Z,14.80
2018-10-09T04:38:51.308Z,14.80
2018-10-09T04:41:20.652Z,14.80
2018-10-09T04:43:50.253Z,14.70
2018-10-09T04:46:19.856Z,14.70
2018-10-09T04:48:49.484Z,14.70
2018-10-09T04:51:18.981Z,14.70
2018-10-09T04:53:48.482Z,14.70
2018-10-09T04:56:17.972Z,14.70
2018-10-09T04:58:47.542Z,14.70
2018-10-09T05:01:18.030Z,14.70
2018-10-09T05:03:47.438Z,14.60
2018-10-09T05:06:16.802Z,14.70
2018-10-09T05:08:46.472Z,14.60
2018-10-09T05:11:15.838Z,14.60
2018-10-09T05:13:45.238Z,14.60
2018-10-09T05:16:14.560Z,14.60
2018-10-09T05:18:43.910Z,14.60
2018-10-09T05:21:13.224Z,14.50
2018-10-09T05:23:42.584Z,14.50
2018-10-09T05:26:12.015Z,14.50
2018-10-09T05:28:41.397Z,14.50
2018-10-09T05:31:10.839Z,14.50
2018-10-09T05:33:40.159Z,14.50
2018-10-09T05:36:09.518Z,14.50
2018-10-09T05:38:38.866Z,14.50
2018-10-09T05:41:08.318Z,14.50
2018-10-09T05:43:37.684Z,14.50
2018-10-09T05:46:07.487Z,14.50
2018-10-09T05:48:36.918Z,14.50
2018-10-09T05:51:06.592Z,14.50
2018-10-09T05:53:36.688Z,14.50
2018-10-09T05:56:06.009Z,14.50
2018-10-09T05:58:35.323Z,14.50
2018-10-09T06:01:04.666Z,14.60
2018-10-09T06:03:34.154Z,14.50
2018-10-09T06:06:03.551Z,14.60
2018-10-09T06:08:32.864Z,14.60
2018-10-09T06:11:02.213Z,14.60
2018-10-09T06:13:31.561Z,14.60
2018-10-09T06:16:01.006Z,14.60
2018-10-09T06:18:30.317Z,14.60
2018-10-09T06:20:59.640Z,14.60
2018-10-09T06:23:29.023Z,14.70
2018-10-09T06:25:58.366Z,14.70
2018-10-09T06:28:27.802Z,14.70
2018-10-09T06:30:57.100Z,14.70
2018-10-09T06:33:26.529Z,14.80
2018-10-09T06:35:55.879Z,14.80
2018-10-09T06:38:25.231Z,14.80
2018-10-09T06:40:54.912Z,14.90
2018-10-09T06:43:24.259Z,14.90
2018-10-09T06:45:53.623Z,14.90
2018-10-09T06:48:23.046Z,15.00
2018-10-09T06:50:52.481Z,15.00
2018-10-09T06:53:21.888Z,15.10
2018-10-09T06:55:51.199Z,15.10
2018-10-09T06:58:20.549Z,15.20
2018-10-09T07:00:50.020Z,15.20
2018-10-09T07:03:19.550Z,15.30
2018-10-09T07:05:48.972Z,15.30
2018-10-09T07:08:18.948Z,15.40
2018-10-09T07:10:48.393Z,15.40
2018-10-09T07:13:17.820Z,15.50
2018-10-09T07:15:47.934Z,15.60
2018-10-09T07:18:17.317Z,15.60
2018-10-09T07:20:46.730Z,15.70
2018-10-09T07:23:16.077Z,15.70
2018-10-09T07:25:45.425Z,15.70
2018-10-09T07:28:14.793Z,15.80
2018-10-09T07:30:44.409Z,15.80
2018-10-09T07:33:13.778Z,15.80
2018-10-09T07:35:43.245Z,15.90
2018-10-09T07:38:12.619Z,15.90
2018-10-09T07:40:41.976Z,16.00
2018-10-09T07:43:11.372Z,16.00
2018-10-09T07:45:40.712Z,16.10
2018-10-09T07:48:10.059Z,16.20
2018-10-09T07:50:39.864Z,16.30
2018-10-09T07:53:09.249Z,16.40
2018-10-09T07:55:38.665Z,16.50
2018-10-09T07:58:08.252Z,16.60
2018-10-09T08:00:37.631Z,16.70
2018-10-09T08:03:07.097Z,16.80
2018-10-09T08:05:36.477Z,16.90
2018-10-09T08:08:05.934Z,17.10
2018-10-09T08:10:35.292Z,17.20
2018-10-09T08:13:04.641Z,17.30
2018-10-09T08:15:33.969Z,17.40
2018-10-09T08:18:03.362Z,17.50
2018-10-09T08:20:32.721Z,17.60
2018-10-09T08:23:02.274Z,17.60
2018-10-09T08:25:31.640Z,17.70
2018-10-09T08:28:01.224Z,17.70
2018-10-09T08:30:30.638Z,17.80
2018-10-09T08:33:00.486Z,17.80
2018-10-09T08:35:29.802Z,17.90
2018-10-09T08:37:59.184Z,17.90
2018-10-09T08:40:28.762Z,18.00
2018-10-09T08:42:58.226Z,18.00
2018-10-09T08:45:27.727Z,18.10
2018-10-09T08:47:57.113Z,18.10
2018-10-09T08:50:26.459Z,18.10
2018-10-09T08:52:55.796Z,18.20
2018-10-09T08:55:25.212Z,18.20
2018-10-09T08:57:54.570Z,18.20
2018-10-09T09:00:24.009Z,18.30
2018-10-09T09:02:53.341Z,18.30
2018-10-09T09:05:22.708Z,18.30
2018-10-09T09:07:52.055Z,18.40
2018-10-09T09:10:21.422Z,18.40
2018-10-09T09:12:50.780Z,18.50
2018-10-09T09:15:20.212Z,18.50
2018-10-09T09:17:49.597Z,18.50
2018-10-09T09:20:18.949Z,18.60
2018-10-09T09:22:48.336Z,18.60
2018-10-09T09:25:17.672Z,18.70
2018-10-09T09:27:47.155Z,18.70
2018-10-09T09:30:16.453Z,18.80
2018-10-09T09:32:45.825Z,18.80
2018-10-09T09:35:15.212Z,18.90
2018-10-09T09:37:44.636Z,18.90
2018-10-09T09:40:14.030Z,19.00
2018-10-09T09:42:43.449Z,19.00
2018-10-09T09:45:12.862Z,19.10
2018-10-09T09:47:42.215Z,19.10
2018-10-09T09:50:11.576Z,19.10
2018-10-09T09:52:41.069Z,19.20
2018-10-09T09:55:10.473Z,19.20
2018-10-09T09:57:40.806Z,19.30
2018-10-09T10:00:15.585Z,19.30
2018-10-09T10:02:44.972Z,19.30
2018-10-09T10:05:14.461Z,19.40
2018-10-09T10:07:44.206Z,19.40
2018-10-09T10:10:13.660Z,19.40
2018-10-09T10:12:43.198Z,19.40
2018-10-09T10:15:12.741Z,19.50
2018-10-09T10:17:42.136Z,19.50
2018-10-09T10:20:11.914Z,19.50
2018-10-09T10:22:41.289Z,19.60
2018-10-09T10:25:10.793Z,19.60
2018-10-09T10:27:40.289Z,19.60
2018-10-09T10:30:09.681Z,19.60
2018-10-09T10:32:39.269Z,19.70
2018-10-09T10:35:08.650Z,19.70
2018-10-09T10:37:37.996Z,19.70
2018-10-09T10:40:07.514Z,19.70
2018-10-09T10:42:36.841Z,19.70
2018-10-09T10:45:06.358Z,19.80
2018-10-09T10:47:35.808Z,19.80
2018-10-09T10:50:05.218Z,19.80
2018-10-09T10:52:34.691Z,19.80
2018-10-09T10:55:04.182Z,19.90
2018-10-09T10:57:33.832Z,19.90
2018-10-09T11:00:03.877Z,19.90
2018-10-09T11:02:33.838Z,19.90
2018-10-09T11:05:03.214Z,20.00
2018-10-09T11:07:33.002Z,20.00
2018-10-09T11:10:02.446Z,20.00
2018-10-09T11:12:31.902Z,20.10
2018-10-09T11:15:01.419Z,20.10
2018-10-09T11:17:31.337Z,20.10
2018-10-09T11:20:00.830Z,20.20
2018-10-09T11:22:30.264Z,20.20
2018-10-09T11:24:59.669Z,20.20
2018-10-09T11:27:29.117Z,20.30
2018-10-09T11:29:58.538Z,20.30
2018-10-09T11:32:27.985Z,20.30
2018-10-09T11:34:57.429Z,20.30
2018-10-09T11:37:27.805Z,20.40
2018-10-09T11:39:57.201Z,20.40
2018-10-09T11:42:26.669Z,20.40
2018-10-09T11:44:56.135Z,20.40
2018-10-09T11:47:25.659Z,20.50
2018-10-09T11:49:55.186Z,20.50
2018-10-09T11:52:24.692Z,20.50
2018-10-09T11:54:54.173Z,20.50
2018-10-09T11:57:23.757Z,20.50
2018-10-09T11:59:53.224Z,20.60
2018-10-09T12:02:22.593Z,20.60
2018-10-09T12:04:52.001Z,20.60
2018-10-09T12:07:21.433Z,20.60
2018-10-09T12:09:50.841Z,20.60
2018-10-09T12:12:20.281Z,20.60
2018-10-09T12:14:49.682Z,20.70
2018-10-09T12:17:19.092Z,20.70
2018-10-09T12:19:48.541Z,20.70
2018-10-09T12:22:18.990Z,20.70
2018-10-09T12:24:48.373Z,20.80
2018-10-09T12:27:17.949Z,20.80
2018-10-09T12:29:47.423Z,20.80
2018-10-09T12:32:16.916Z,20.80
2018-10-09T12:34:46.428Z,20.80
2018-10-09T12:37:15.943Z,20.90
2018-10-09T12:39:45.424Z,20.90
2018-10-09T12:42:14.910Z,20.90
2018-10-09T12:44:44.363Z,20.90
2018-10-09T12:47:13.815Z,20.90
2018-10-09T12:49:43.267Z,20.90
2018-10-09T12:52:12.693Z,21.00
2018-10-09T12:54:42.400Z,21.00
2018-10-09T12:57:12.180Z,21.00
2018-10-09T12:59:41.521Z,21.00
2018-10-09T13:02:10.975Z,21.10
2018-10-09T13:04:40.340Z,21.10
2018-10-09T13:07:09.710Z,21.10
2018-10-09T13:09:39.216Z,21.10
2018-10-09T13:12:08.658Z,21.20
2018-10-09T13:14:38.590Z,21.20
2018-10-09T13:17:08.449Z,21.20
2018-10-09T13:19:37.900Z,21.20
2018-10-09T13:22:07.846Z,21.20
2018-10-09T13:24:37.717Z,21.20
2018-10-09T13:27:07.267Z,21.30
2018-10-09T13:29:36.752Z,21.30
2018-10-09T13:32:06.222Z,21.30
2018-10-09T13:34:35.677Z,21.30
2018-10-09T13:37:05.105Z,21.30
2018-10-09T13:39:34.881Z,21.40
2018-10-09T13:42:04.389Z,21.40
2018-10-09T13:44:33.991Z,21.40
2018-10-09T13:47:03.630Z,21.40
2018-10-09T13:49:33.119Z,21.40
2018-10-09T13:52:03.161Z,21.40
2018-10-09T13:54:32.659Z,21.40
2018-10-09T13:57:02.163Z,21.50
2018-10-09T13:59:31.658Z,21.50
2018-10-09T14:02:01.152Z,21.50
2018-10-09T14:04:30.476Z,21.50
2018-10-09T14:06:59.986Z,21.50
2018-10-09T14:09:29.382Z,21.50
2018-10-09T14:11:58.828Z,21.60
2018-10-09T14:14:28.184Z,21.60
2018-10-09T14:16:57.540Z,21.60
2018-10-09T14:19:26.922Z,21.60
2018-10-09T14:21:56.279Z,21.60
2018-10-09T14:24:25.683Z,21.60
2018-10-09T14:26:55.146Z,21.60
2018-10-09T14:29:24.649Z,21.60
2018-10-09T14:31:54.167Z,21.60
2018-10-09T14:34:23.670Z,21.70
2018-10-09T14:36:53.202Z,21.70
2018-10-09T14:39:22.670Z,21.70
2018-10-09T14:41:52.244Z,21.70
2018-10-09T14:46:44.780Z,21.70
2018-10-09T14:49:14.344Z,21.70
2018-10-09T14:51:43.877Z,21.70
2018-10-09T14:54:13.383Z,21.70
2018-10-09T14:56:43.191Z,21.70
2018-10-09T14:59:12.751Z,21.70
2018-10-09T15:01:42.332Z,21.70
2018-10-09T15:04:11.817Z,21.70
2018-10-09T15:06:41.164Z,21.70
2018-10-09T15:09:12.758Z,21.70
2018-10-09T15:11:42.837Z,21.70
2018-10-09T15:14:12.254Z,21.70
2018-10-09T15:16:41.646Z,21.70
2018-10-09T15:19:10.921Z,21.70
2018-10-09T15:21:40.281Z,21.70
2018-10-09T15:24:09.644Z,21.70
2018-10-09T15:26:39.273Z,21.70
2018-10-09T15:29:08.714Z,21.70
2018-10-09T15:31:38.018Z,21.70
2018-10-09T15:34:07.685Z,21.70
2018-10-09T15:36:37.052Z,21.70
2018-10-09T15:39:10.261Z,21.70
2018-10-09T15:41:39.658Z,21.70
2018-10-09T15:44:09.017Z,21.70
2018-10-09T15:46:38.405Z,21.60
2018-10-09T15:49:07.890Z,21.70
2018-10-09T15:51:37.478Z,21.60
2018-10-09T15:54:06.925Z,21.60
2018-10-09T15:56:36.428Z,21.60
2018-10-09T15:59:06.036Z,21.60
2018-10-09T16:01:35.427Z,21.60
2018-10-09T16:04:04.883Z,21.60
2018-10-09T16:06:34.277Z,21.50
2018-10-09T16:09:04.885Z,21.50
2018-10-09T16:11:34.745Z,21.50
2018-10-09T16:14:04.425Z,21.50
2018-10-09T16:16:33.833Z,21.50
2018-10-09T16:19:03.320Z,21.40
2018-10-09T16:21:32.742Z,21.40
2018-10-09T16:24:02.250Z,21.40
2018-10-09T16:26:31.599Z,21.40
2018-10-09T16:29:01.806Z,21.40
2018-10-09T16:31:31.392Z,21.30
2018-10-09T16:34:00.744Z,21.30
2018-10-09T16:36:30.147Z,21.30
2018-10-09T16:38:59.528Z,21.30
2018-10-09T16:41:28.907Z,21.20
2018-10-09T16:43:58.310Z,21.20
2018-10-09T16:46:27.753Z,21.20
2018-10-09T16:48:57.264Z,21.20
2018-10-09T16:51:26.606Z,21.10
2018-10-09T16:53:56.265Z,21.10
2018-10-09T16:56:25.681Z,21.10
2018-10-09T16:58:55.362Z,21.00
2018-10-09T17:01:24.899Z,21.00
2018-10-09T17:03:54.404Z,21.00
2018-10-09T17:06:23.928Z,21.00
2018-10-09T17:08:53.321Z,20.90
2018-10-09T17:11:22.890Z,20.90
2018-10-09T17:13:52.350Z,20.90
2018-10-09T17:16:21.748Z,20.80
2018-10-09T17:18:51.101Z,20.80
2018-10-09T17:21:20.454Z,20.80
2018-10-09T17:23:50.690Z,20.80
2018-10-09T17:26:20.213Z,20.70
2018-10-09T17:28:49.598Z,20.70
2018-10-09T17:31:19.093Z,20.70
2018-10-09T17:33:49.088Z,20.60
2018-10-09T17:36:18.669Z,20.60
2018-10-09T17:38:48.011Z,20.60
2018-10-09T17:41:17.550Z,20.50
2018-10-09T17:43:47.130Z,20.50
2018-10-09T17:46:16.532Z,20.40
2018-10-09T17:48:45.995Z,20.40
2018-10-09T17:51:15.332Z,20.40
2018-10-09T17:53:44.741Z,20.40
2018-10-09T17:56:14.063Z,20.30
2018-10-09T17:58:43.424Z,20.30
2018-10-09T18:01:12.813Z,20.30
2018-10-09T18:03:42.392Z,20.30
2018-10-09T18:06:12.020Z,20.20
2018-10-09T18:08:41.807Z,20.20
2018-10-09T18:11:11.148Z,20.20
2018-10-09T18:13:40.562Z,20.10
2018-10-09T18:16:10.156Z,20.10
2018-10-09T18:18:39.697Z,20.10
2018-10-09T18:21:09.307Z,20.00
2018-10-09T18:23:38.909Z,20.00
2018-10-09T18:26:08.413Z,20.00
2018-10-09T18:28:37.874Z,20.00
2018-10-09T18:31:08.401Z,19.90
2018-10-09T18:33:37.873Z,19.90
2018-10-09T18:36:07.702Z,19.90
2018-10-09T18:38:37.176Z,19.80
2018-10-09T18:41:06.683Z,19.80
2018-10-09T18:43:36.034Z,19.80
2018-10-09T18:46:05.593Z,19.70
2018-10-09T18:48:35.381Z,19.70
2018-10-09T18:51:04.951Z,19.70
2018-10-09T18:53:34.345Z,19.60
2018-10-09T18:56:03.920Z,19.60
2018-10-09T18:58:33.353Z,19.60
2018-10-09T19:01:02.781Z,19.50
2018-10-09T19:03:32.416Z,19.50
2018-10-09T19:06:01.994Z,19.50
2018-10-09T19:08:31.539Z,19.40
2018-10-09T19:11:00.916Z,19.40
2018-10-09T19:13:31.076Z,19.40
2018-10-09T19:16:00.654Z,19.30
2018-10-09T19:18:30.051Z,19.30
2018-10-09T19:20:59.595Z,19.30
2018-10-09T19:23:29.065Z,19.20
2018-10-09T19:25:58.663Z,19.20
2018-10-09T19:28:28.110Z,19.20
2018-10-09T19:30:57.678Z,19.20
2018-10-09T19:33:27.249Z,19.20
2018-10-09T19:35:56.676Z,19.10
2018-10-09T19:38:26.058Z,19.10
2018-10-09T19:40:55.476Z,19.10
2018-10-09T19:43:24.899Z,19.00
2018-10-09T19:45:54.526Z,19.00
2018-10-09T19:48:23.953Z,19.00
2018-10-09T19:50:53.463Z,19.00
2018-10-09T19:53:22.891Z,18.90
2018-10-09T19:55:52.433Z,18.90
2018-10-09T19:58:22.152Z,18.90
2018-10-09T20:00:51.761Z,18.90
2018-10-09T20:03:21.280Z,18.80
2018-10-09T20:05:51.519Z,18.80
2018-10-09T20:08:21.027Z,18.80
2018-10-09T20:10:50.493Z,18.80
2018-10-09T20:13:19.887Z,18.80
2018-10-09T20:15:49.338Z,18.70
2018-10-09T20:18:18.765Z,18.70
2018-10-09T20:20:48.305Z,18.70
2018-10-09T20:23:17.958Z,18.70
2018-10-09T20:25:47.420Z,18.60
2018-10-09T20:28:16.878Z,18.60
2018-10-09T20:30:46.313Z,18.60
2018-10-09T20:33:15.810Z,18.60
2018-10-09T20:35:45.351Z,18.50
2018-10-09T20:38:14.822Z,18.50
2018-10-09T20:40:44.462Z,18.50
2018-10-09T20:43:14.099Z,18.50
2018-10-09T20:45:43.600Z,18.40
2018-10-09T20:48:13.194Z,18.40
2018-10-09T20:50:42.717Z,18.40
2018-10-09T20:53:12.228Z,18.40
2018-10-09T20:55:41.728Z,18.40
2018-10-09T20:58:11.141Z,18.30
2018-10-09T21:00:40.772Z,18.30
2018-10-09T21:03:10.273Z,18.30
2018-10-09T21:05:39.873Z,18.20
2018-10-09T21:08:09.294Z,18.20
2018-10-09T21:10:39.400Z,18.20
2018-10-09T21:13:09.678Z,18.20
2018-10-09T21:15:39.252Z,18.10
2018-10-09T21:18:08.858Z,18.10
2018-10-09T21:20:38.462Z,18.10
2018-10-09T21:23:08.531Z,18.00
2018-10-09T21:25:37.997Z,18.00
2018-10-09T21:28:08.739Z,18.00
2018-10-09T21:30:38.355Z,18.00
2018-10-09T21:33:08.156Z,18.00
2018-10-09T21:35:38.561Z,17.90
2018-10-09T21:38:08.004Z,17.90
2018-10-09T21:40:37.388Z,17.90
2018-10-09T21:43:06.900Z,17.90
2018-10-09T21:45:36.535Z,17.90
2018-10-09T21:48:06.031Z,17.80
2018-10-09T21:50:35.632Z,17.80
2018-10-09T21:53:05.105Z,17.80
2018-10-09T21:55:34.606Z,17.70
2018-10-09T21:58:04.173Z,17.70
2018-10-09T22:00:39.039Z,17.70
2018-10-09T22:03:08.644Z,17.70
2018-10-09T22:05:38.106Z,17.70
2018-10-09T22:08:07.624Z,17.60
2018-10-09T22:10:37.589Z,17.60
2018-10-09T22:13:07.475Z,17.60
2018-10-09T22:15:36.998Z,17.60
2018-10-09T22:18:06.428Z,17.50
2018-10-09T22:20:36.022Z,17.50
2018-10-09T22:23:05.462Z,17.50
2018-10-09T22:25:35.521Z,17.50
2018-10-09T22:28:05.057Z,17.40
2018-10-09T22:30:35.552Z,17.40
2018-10-09T22:33:05.297Z,17.40
2018-10-09T22:35:34.785Z,17.40
2018-10-09T22:38:04.292Z,17.30
2018-10-09T22:40:34.011Z,17.30
2018-10-09T22:43:03.689Z,17.30
2018-10-09T22:45:33.106Z,17.30
2018-10-09T22:48:03.154Z,17.20
2018-10-09T22:50:32.666Z,17.20
2018-10-09T22:53:02.064Z,17.20
2018-10-09T22:55:31.617Z,17.10
2018-10-09T22:58:01.183Z,17.10
2018-10-09T23:00:30.805Z,17.10
2018-10-09T23:03:00.253Z,17.10
2018-10-09T23:05:29.799Z,17.10
2018-10-09T23:07:59.221Z,17.00
2018-10-09T23:10:28.664Z,17.00
2018-10-09T23:12:58.167Z,17.00
2018-10-09T23:15:27.616Z,17.00
2018-10-09T23:17:57.178Z,17.00
2018-10-09T23:20:26.672Z,17.00
2018-10-09T23:22:56.278Z,16.90
2018-10-09T23:25:25.801Z,16.90
2018-10-09T23:27:55.275Z,16.90
2018-10-09T23:30:24.806Z,16.90
2018-10-09T23:32:54.865Z,16.90
2018-10-09T23:35:24.929Z,16.80
2018-10-09T23:37:54.437Z,16.80
2018-10-09T23:40:23.953Z,16.80
2018-10-09T23:42:53.507Z,16.80
2018-10-09T23:45:22.970Z,16.80
2018-10-09T23:48:07.679Z,16.70
2018-10-09T23:50:40.165Z,16.70
2018-10-09T23:53:10.400Z,16.70
2018-10-09T23:55:39.852Z,16.70
2018-10-09T23:58:10.138Z,16.70
